Latest Weather Observations for Legendre Island

IDW60801

Issued at 8:53 am WST Sunday 5 July 2020 (issued every 10 minutes, with the page automatically refreshed every 10 minutes)

About weather observations | Map of weather stations | Latest weather observations for WA | Other Formats
Station Details ID: 004095 Name: LEGENDRE ISLAND Lat: -20.36 Lon: 116.84 Height: 29.0 m
Data from the previous 72 hours. | See also: Recent months at Legendre Island
Date/Time
WST
Temp
°C
App
Temp
°C
Dew
Point
°C
Rel
Hum
%
Delta-T
°C
Wind Press
QNH
hPa
Press
MSL
hPa
Rain since
9am
mm
Dir  Spd
km/h
Gust
km/h
Spd
kts
Gust
kts
05/08:30am 25.0 - - - - - - - - - 1018.7 1018.6 -
05/08:00am 24.9 - - - - - - - - - 1018.4 1018.3 -
05/07:30am 24.3 - - - - - - - - - 1018.1 1018.0 -
05/07:00am 24.2 - - - - - - - - - 1017.8 1017.7 -
05/06:30am 24.0 - - - - - - - - - 1017.5 1017.4 -
05/06:00am 22.8 - - - - - - - - - 1017.3 1017.2 -
05/05:30am 22.9 - - - - - - - - - 1016.9 1016.8 -
05/05:00am 22.8 - - - - - - - - - 1016.7 1016.6 -
05/04:30am 22.6 - - - - - - - - - 1016.5 1016.4 -
05/04:00am 22.4 - - - - - - - - - 1016.6 1016.5 -
05/03:30am 22.7 - - - - - - - - - 1016.8 1016.7 -
05/03:00am 22.6 - - - - - - - - - 1016.9 1016.8 -
05/02:30am 23.0 - - - - - - - - - 1017.0 1016.9 -
05/02:00am 22.7 - - - - - - - - - 1017.3 1017.2 -
05/01:30am 22.6 - - - - - - - - - 1017.4 1017.3 -
05/01:00am 22.7 - - - - - - - - - 1017.6 1017.5 -
05/12:30am 22.6 - - - - - - - - - 1017.8 1017.7 -
05/12:00am 22.8 - - - - - - - - - 1017.8 1017.7 -
 
Date/Time
WST
Temp
°C
App
Temp
°C
Dew
Point
°C
Rel
Hum
%
Delta-T
°C
Wind Press
QNH
hPa
Press
MSL
hPa
Rain since
9am
mm
Dir  Spd
km/h
Gust
km/h
Spd
kts
Gust
kts
04/11:30pm 22.9 - - - - - - - - - 1017.9 1017.8 -
04/11:00pm 23.5 - - - - - - - - - 1018.2 1018.1 -
04/10:30pm 22.3 - - - - - - - - - 1018.2 1018.1 -
04/10:00pm 24.0 - - - - - - - - - 1018.3 1018.2 -
04/09:30pm 24.6 - - - - - - - - - 1018.2 1018.1 -
04/09:00pm 24.6 - - - - - - - - - 1018.2 1018.1 -
04/08:30pm 24.4 - - - - - - - - - 1018.0 1017.9 -
04/08:00pm 24.2 - - - - - - - - - 1017.9 1017.8 -
04/07:30pm 24.4 - - - - - - - - - 1017.7 1017.6 -
04/07:00pm 24.4 - - - - - - - - - 1017.4 1017.3 -
04/06:30pm 24.3 - - - - - - - - - 1017.1 1017.0 -
04/06:00pm 24.7 - - - - - - - - - 1016.8 1016.7 -
04/05:30pm 25.0 - - - - - - - - - 1016.6 1016.5 -
04/05:00pm 25.4 - - - - - - - - - 1016.3 1016.2 -
04/04:30pm 26.0 - - - - - - - - - 1016.3 1016.2 -
04/04:00pm 26.3 - - - - - - - - - 1016.2 1016.1 -
04/03:30pm 26.6 - - - - - - - - - 1016.2 1016.1 -
04/03:00pm 26.6 - - - - - - - - - 1016.4 1016.3 -
04/02:30pm 26.7 - - - - - - - - - 1016.6 1016.5 -
04/02:00pm 26.6 - - - - - - - - - 1016.7 1016.6 -
04/01:30pm 26.2 - - - - - - - - - 1017.0 1016.9 -
04/01:00pm 25.9 - - - - - - - - - 1017.5 1017.4 -
04/12:30pm 26.0 - - - - - - - - - 1018.1 1018.0 -
04/12:00pm 25.8 - - - - - - - - - 1018.6 1018.5 -
04/11:30am 25.3 - - - - - - - - - 1019.0 1018.9 -
04/11:00am 24.9 - - - - - - - - - 1019.5 1019.4 -
04/10:30am 24.2 - - - - - - - - - 1019.8 1019.7 -
04/10:00am 24.0 - - - - - - - - - 1020.1 1020.0 -
04/09:30am 23.5 - - - - - - - - - 1020.0 1019.9 -
04/09:00am 23.2 - - - - - - - - - 1020.0 1019.9 -
04/08:30am 22.7 - - - - - - - - - 1019.8 1019.7 -
04/08:00am 22.8 - - - - - - - - - 1019.6 1019.5 -
04/07:30am 22.4 - - - - - - - - - 1019.5 1019.4 -
04/07:00am 22.1 - - - - - - - - - 1019.4 1019.3 -
04/06:30am 22.0 - - - - - - - - - 1019.2 1019.1 -
04/06:00am 22.1 - - - - - - - - - 1018.9 1018.8 -
04/05:30am 22.2 - - - - - - - - - 1018.6 1018.5 -
04/05:00am 21.7 - - - - - - - - - 1018.5 1018.4 -
04/04:30am 21.9 - - - - - - - - - 1018.7 1018.6 -
04/04:00am 22.1 - - - - - - - - - 1018.5 1018.4 -
04/03:30am 22.3 - - - - - - - - - 1018.5 1018.4 -
04/03:00am 22.4 - - - - - - - - - 1018.7 1018.6 -
04/02:30am 22.7 - - - - - - - - - 1018.7 1018.6 -
04/02:00am 22.9 - - - - - - - - - 1019.1 1019.0 -
04/01:30am 23.1 - - - - - - - - - 1019.2 1019.1 -
04/01:00am 23.2 - - - - - - - - - 1019.3 1019.2 -
04/12:30am 23.4 - - - - - - - - - 1019.5 1019.4 -
04/12:00am 23.8 - - - - - - - - - 1019.6 1019.5 -
 
Date/Time
WST
Temp
°C
App
Temp
°C
Dew
Point
°C
Rel
Hum
%
Delta-T
°C
Wind Press
QNH
hPa
Press
MSL
hPa
Rain since
9am
mm
Dir  Spd
km/h
Gust
km/h
Spd
kts
Gust
kts
03/11:30pm 24.2 - - - - - - - - - 1019.7 1019.6 -
03/11:00pm 24.6 - - - - - - - - - 1019.8 1019.7 -
03/10:30pm 24.7 - - - - - - - - - 1019.9 1019.8 -
03/10:00pm 24.9 - - - - - - - - - 1019.9 1019.8 -
03/09:30pm 25.1 - - - - - - - - - 1019.8 1019.7 -
03/09:00pm 24.5 - - - - - - - - - 1019.6 1019.5 -
03/08:30pm 24.3 - - - - - - - - - 1019.3 1019.2 -
03/08:00pm 23.9 - - - - - - - - - 1019.1 1019.0 -
03/07:30pm 24.2 - - - - - - - - - 1018.8 1018.7 -
03/07:00pm 24.4 - - - - - - - - - 1018.5 1018.4 -
03/06:30pm 24.4 - - - - - - - - - 1018.1 1018.0 -
03/06:00pm 24.3 - - - - - - - - - 1017.9 1017.8 -
03/05:30pm 24.6 - - - - - - - - - 1017.7 1017.6 -
03/05:00pm 24.9 - - - - - - - - - 1017.4 1017.3 -
03/04:30pm 25.3 - - - - - - - - - 1017.5 1017.4 -
03/04:00pm 25.6 - - - - - - - - - 1017.4 1017.3 -
03/03:30pm 25.7 - - - - - - - - - 1017.4 1017.3 -
03/03:00pm 26.0 - - - - - - - - - 1017.3 1017.2 -
03/02:30pm 25.4 - - - - - - - - - 1017.3 1017.2 -
03/02:00pm 26.1 - - - - - - - - - 1017.3 1017.2 -
03/01:30pm 26.3 - - - - - - - - - 1017.7 1017.6 -
03/01:00pm 25.7 - - - - - - - - - 1018.1 1018.0 -
03/12:30pm 25.4 - - - - - - - - - 1018.3 1018.2 -
03/12:00pm 24.9 - - - - - - - - - 1018.5 1018.4 -
03/11:30am 24.8 - - - - - - - - - 1018.8 1018.7 -
03/11:00am 24.8 - - - - - - - - - 1019.0 1018.9 -
03/10:30am 24.8 - - - - - - - - - 1019.2 1019.1 -
03/10:00am 24.7 - - - - - - - - - 1019.1 1019.0 -
03/09:30am 25.1 - - - - - - - - - 1019.2 1019.1 -
03/09:00am 24.6 - - - - - - - - - 1018.6 1018.5 -
03/08:30am 24.3 - - - - - - - - - 1018.4 1018.3 -
03/08:00am 24.4 - - - - - - - - - 1018.6 1018.5 -
03/07:30am 24.7 - - - - - - - - - 1018.2 1018.1 -
03/07:00am 24.6 - - - - - - - - - 1018.0 1017.9 -
03/06:30am 24.5 - - - - - - - - - 1018.3 1018.2 -
03/06:00am 24.6 - - - - - - - - - 1017.7 1017.6 -
03/05:30am 24.6 - - - - - - - - - 1017.5 1017.4 -
03/05:00am 24.6 - - - - - - - - - 1016.8 1016.7 -
03/04:30am 24.7 - - - - - - - - - 1017.2 1017.1 -
03/04:00am 24.9 - - - - - - - - - 1016.8 1016.7 -
03/03:30am 24.8 - - - - - - - - - 1016.3 1016.2 -
03/03:00am 24.5 - - - - - - - - - 1017.0 1016.9 -
03/02:30am 24.6 - - - - - - - - - 1017.0 1016.9 -
03/02:00am 24.7 - - - - - - - - - 1017.1 1017.0 -
03/01:30am 24.1 - - - - - - - - - 1017.6 1017.5 -
03/01:00am 24.6 - - - - - - - - - 1017.6 1017.5 -
03/12:30am 24.2 - - - - - - - - - 1017.4 1017.3 -
03/12:00am 24.1 - - - - - - - - - 1017.5 1017.4 -
 
Date/Time
WST
Temp
°C
App
Temp
°C
Dew
Point
°C
Rel
Hum
%
Delta-T
°C
Wind Press
QNH
hPa
Press
MSL
hPa
Rain since
9am
mm
Dir  Spd
km/h
Gust
km/h
Spd
kts
Gust
kts
02/11:30pm 23.8 - - - - - - - - - 1017.2 1017.1 -
02/11:00pm 23.4 - - - - - - - - - 1017.3 1017.2 -
02/10:30pm 23.6 - - - - - - - - - 1017.3 1017.2 -
02/10:00pm 23.7 - - - - - - - - - 1017.5 1017.4 -
02/09:30pm 23.6 - - - - - - - - - 1017.3 1017.2 -
02/09:00pm 24.2 - - - - - - - - - 1016.8 1016.7 -
02/08:30pm 25.0 - - - - - - - - - 1016.5 1016.4 -
02/08:00pm 25.1 - - - - - - - - - 1016.0 1015.9 -
02/07:30pm 25.0 - - - - - - - - - 1015.5 1015.4 -
02/07:00pm 24.9 - - - - - - - - - 1014.8 1014.8 -
02/06:30pm 24.9 - - - - - - - - - 1014.9 1014.9 -
02/06:00pm 25.0 - - - - - - - - - 1014.7 1014.7 -
02/05:30pm 25.0 - - - - - - - - - 1014.4 1014.4 -
02/05:00pm 25.2 - - - - - - - - - 1014.3 1014.3 -
02/04:30pm 25.5 - - - - - - - - - 1014.1 1014.1 -
02/04:00pm 25.6 - - - - - - - - - 1013.8 1013.7 -
02/03:30pm 25.6 - - - - - - - - - 1013.6 1013.5 -
02/03:00pm 26.4 - - - - - - - - - 1013.8 1013.7 -
02/02:30pm 25.7 - - - - - - - - - 1013.9 1013.8 -
02/02:00pm 25.9 - - - - - - - - - 1014.1 1014.1 -
02/01:30pm 26.2 - - - - - - - - - 1014.2 1014.2 -
02/01:00pm 26.3 - - - - - - - - - 1014.6 1014.6 -
02/12:30pm 26.1 - - - - - - - - - 1014.9 1014.9 -
02/12:00pm 26.2 - - - - - - - - - 1015.5 1015.4 -
02/11:30am 25.8 - - - - - - - - - 1015.7 1015.6 -
02/11:00am 25.5 - - - - - - - - - 1016.3 1016.2 -
02/10:30am 25.3 - - - - - - - - - 1016.5 1016.4 -
02/10:00am 25.4 - - - - - - - - - 1016.5 1016.4 -
02/09:30am 25.4 - - - - - - - - - 1016.4 1016.3 -
02/09:00am 24.8 - - - - - - - - - 1016.6 1016.5 -

Other formats

Comma delimited format used in spreadsheet applications
http://www.bom.gov.au/fwo/IDW60801/IDW60801.94307.axf

JavaScript Object Notation format (JSON) in row-major order
http://www.bom.gov.au/fwo/IDW60801/IDW60801.94307.json

Data quality

Most of these data are generated automatically and are frequently updated. Quality checks on data are not normally performed. It is possible for incorrect values to appear. Refer to information at About Latest Weather Observations and please check the disclaimer before using these data.